sensor_id;sensor_type;location;lat;lon;timestamp;P1;durP1;ratioP1;P2;durP2;ratioP2
10711;SDS011;5407;51.234;6.804;2024-01-15T00:01:01;41.77;;;26.60;;
10711;SDS011;5407;51.234;6.804;2024-01-15T00:03:28;41.87;;;26.83;;
10711;SDS011;5407;51.234;6.804;2024-01-15T00:05:55;41.30;;;27.17;;
10711;SDS011;5407;51.234;6.804;2024-01-15T00:08:22;41.60;;;27.43;;
10711;SDS011;5407;51.234;6.804;2024-01-15T00:10:49;44.33;;;28.47;;
10711;SDS011;5407;51.234;6.804;2024-01-15T00:13:16;45.50;;;29.90;;
10711;SDS011;5407;51.234;6.804;2024-01-15T00:15:42;45.40;;;28.97;;
10711;SDS011;5407;51.234;6.804;2024-01-15T00:18:11;46.17;;;29.53;;
10711;SDS011;5407;51.234;6.804;2024-01-15T00:20:37;47.20;;;28.80;;
10711;SDS011;5407;51.234;6.804;2024-01-15T00:23:04;45.77;;;29.37;;
10711;SDS011;5407;51.234;6.804;2024-01-15T00:25:31;46.00;;;30.37;;
10711;SDS011;5407;51.234;6.804;2024-01-15T00:27:58;46.23;;;29.70;;
10711;SDS011;5407;51.234;6.804;2024-01-15T00:30:25;45.87;;;29.80;;
10711;SDS011;5407;51.234;6.804;2024-01-15T00:32:51;46.03;;;30.57;;
10711;SDS011;5407;51.234;6.804;2024-01-15T00:35:20;44.13;;;28.63;;
10711;SDS011;5407;51.234;6.804;2024-01-15T00:37:46;46.07;;;28.07;;
10711;SDS011;5407;51.234;6.804;2024-01-15T00:40:13;44.87;;;29.00;;
10711;SDS011;5407;51.234;6.804;2024-01-15T00:42:40;44.03;;;28.17;;
10711;SDS011;5407;51.234;6.804;2024-01-15T00:45:07;46.10;;;29.47;;
10711;SDS011;5407;51.234;6.804;2024-01-15T00:47:34;41.00;;;28.20;;
10711;SDS011;5407;51.234;6.804;2024-01-15T00:50:01;41.20;;;28.03;;
10711;SDS011;5407;51.234;6.804;2024-01-15T00:52:29;47.07;;;29.33;;
10711;SDS011;5407;51.234;6.804;2024-01-15T00:54:56;43.70;;;27.80;;
10711;SDS011;5407;51.234;6.804;2024-01-15T00:57:23;42.23;;;28.73;;
10711;SDS011;5407;51.234;6.804;2024-01-15T00:59:50;42.33;;;27.80;;
10711;SDS011;5407;51.234;6.804;2024-01-15T01:02:17;45.27;;;29.70;;
10711;SDS011;5407;51.234;6.804;2024-01-15T01:04:44;39.50;;;26.83;;
10711;SDS011;5407;51.234;6.804;2024-01-15T01:07:10;39.47;;;26.57;;
10711;SDS011;5407;51.234;6.804;2024-01-15T01:09:38;43.33;;;28.30;;
10711;SDS011;5407;51.234;6.804;2024-01-15T01:12:06;37.63;;;27.10;;
10711;SDS011;5407;51.234;6.804;2024-01-15T01:14:33;41.30;;;27.17;;
10711;SDS011;5407;51.234;6.804;2024-01-15T01:16:59;39.60;;;26.77;;
10711;SDS011;5407;51.234;6.804;2024-01-15T01:19:26;39.00;;;26.73;;
10711;SDS011;5407;51.234;6.804;2024-01-15T01:21:53;37.50;;;27.20;;
10711;SDS011;5407;51.234;6.804;2024-01-15T01:24:20;38.70;;;26.93;;
10711;SDS011;5407;51.234;6.804;2024-01-15T01:26:48;38.17;;;25.67;;
10711;SDS011;5407;51.234;6.804;2024-01-15T01:29:15;39.70;;;25.17;;
10711;SDS011;5407;51.234;6.804;2024-01-15T01:31:42;40.60;;;25.23;;
10711;SDS011;5407;51.234;6.804;2024-01-15T01:34:10;38.43;;;25.90;;
10711;SDS011;5407;51.234;6.804;2024-01-15T01:36:37;37.40;;;24.87;;
10711;SDS011;5407;51.234;6.804;2024-01-15T01:39:04;36.53;;;24.37;;
10711;SDS011;5407;51.234;6.804;2024-01-15T01:41:31;36.87;;;23.50;;
10711;SDS011;5407;51.234;6.804;2024-01-15T01:43:59;38.67;;;25.30;;
10711;SDS011;5407;51.234;6.804;2024-01-15T01:46:27;36.17;;;25.27;;
10711;SDS011;5407;51.234;6.804;2024-01-15T01:48:54;39.13;;;24.93;;
10711;SDS011;5407;51.234;6.804;2024-01-15T01:51:22;34.40;;;24.07;;
10711;SDS011;5407;51.234;6.804;2024-01-15T01:53:51;34.43;;;23.27;;
10711;SDS011;5407;51.234;6.804;2024-01-15T01:56:18;37.87;;;23.73;;
10711;SDS011;5407;51.234;6.804;2024-01-15T01:58:45;34.60;;;23.40;;
10711;SDS011;5407;51.234;6.804;2024-01-15T02:01:15;35.67;;;23.30;;
10711;SDS011;5407;51.234;6.804;2024-01-15T02:03:43;35.37;;;23.07;;
10711;SDS011;5407;51.234;6.804;2024-01-15T02:06:10;32.57;;;23.53;;
10711;SDS011;5407;51.234;6.804;2024-01-15T02:08:36;32.13;;;23.23;;
10711;SDS011;5407;51.234;6.804;2024-01-15T02:11:04;34.07;;;23.17;;
10711;SDS011;5407;51.234;6.804;2024-01-15T02:13:31;33.43;;;23.43;;
10711;SDS011;5407;51.234;6.804;2024-01-15T02:15:58;32.47;;;22.97;;
10711;SDS011;5407;51.234;6.804;2024-01-15T02:18:26;34.17;;;22.97;;
10711;SDS011;5407;51.234;6.804;2024-01-15T02:20:53;31.53;;;22.17;;
10711;SDS011;5407;51.234;6.804;2024-01-15T02:23:21;32.33;;;21.87;;
10711;SDS011;5407;51.234;6.804;2024-01-15T02:25:48;31.03;;;21.47;;
10711;SDS011;5407;51.234;6.804;2024-01-15T02:28:16;31.53;;;20.90;;
10711;SDS011;5407;51.234;6.804;2024-01-15T02:30:43;33.07;;;20.80;;
10711;SDS011;5407;51.234;6.804;2024-01-15T02:33:11;32.37;;;21.27;;
10711;SDS011;5407;51.234;6.804;2024-01-15T02:35:38;27.77;;;19.80;;
10711;SDS011;5407;51.234;6.804;2024-01-15T02:38:05;30.60;;;19.90;;
10711;SDS011;5407;51.234;6.804;2024-01-15T02:40:34;29.97;;;20.07;;
10711;SDS011;5407;51.234;6.804;2024-01-15T02:43:01;30.43;;;20.10;;
10711;SDS011;5407;51.234;6.804;2024-01-15T02:45:28;30.00;;;19.77;;
10711;SDS011;5407;51.234;6.804;2024-01-15T02:47:55;29.73;;;19.23;;
10711;SDS011;5407;51.234;6.804;2024-01-15T02:50:22;32.60;;;19.50;;
10711;SDS011;5407;51.234;6.804;2024-01-15T02:52:48;25.47;;;18.63;;
10711;SDS011;5407;51.234;6.804;2024-01-15T02:55:15;28.77;;;18.63;;
10711;SDS011;5407;51.234;6.804;2024-01-15T02:57:44;29.13;;;19.13;;
10711;SDS011;5407;51.234;6.804;2024-01-15T03:00:11;27.50;;;18.70;;
10711;SDS011;5407;51.234;6.804;2024-01-15T03:02:38;27.30;;;18.90;;
10711;SDS011;5407;51.234;6.804;2024-01-15T03:05:08;33.03;;;19.87;;
10711;SDS011;5407;51.234;6.804;2024-01-15T03:07:35;30.63;;;19.70;;
10711;SDS011;5407;51.234;6.804;2024-01-15T03:10:02;27.93;;;17.80;;
10711;SDS011;5407;51.234;6.804;2024-01-15T03:12:29;27.73;;;18.00;;
10711;SDS011;5407;51.234;6.804;2024-01-15T03:14:58;26.20;;;18.00;;
10711;SDS011;5407;51.234;6.804;2024-01-15T03:17:25;30.37;;;19.10;;
10711;SDS011;5407;51.234;6.804;2024-01-15T03:19:52;26.30;;;18.47;;
10711;SDS011;5407;51.234;6.804;2024-01-15T03:22:18;27.43;;;18.60;;
10711;SDS011;5407;51.234;6.804;2024-01-15T03:24:45;27.97;;;18.17;;
10711;SDS011;5407;51.234;6.804;2024-01-15T03:27:12;27.30;;;18.50;;
10711;SDS011;5407;51.234;6.804;2024-01-15T03:29:39;24.30;;;15.97;;
10711;SDS011;5407;51.234;6.804;2024-01-15T03:32:08;23.13;;;16.33;;
10711;SDS011;5407;51.234;6.804;2024-01-15T03:34:35;22.93;;;16.40;;
10711;SDS011;5407;51.234;6.804;2024-01-15T03:37:02;25.00;;;16.33;;
10711;SDS011;5407;51.234;6.804;2024-01-15T03:39:28;20.23;;;15.70;;
10711;SDS011;5407;51.234;6.804;2024-01-15T03:41:55;21.70;;;16.03;;
10711;SDS011;5407;51.234;6.804;2024-01-15T03:44:22;21.83;;;16.57;;
10711;SDS011;5407;51.234;6.804;2024-01-15T03:46:49;23.97;;;16.10;;
10711;SDS011;5407;51.234;6.804;2024-01-15T03:49:18;22.47;;;15.37;;
10711;SDS011;5407;51.234;6.804;2024-01-15T03:51:45;22.87;;;16.33;;
10711;SDS011;5407;51.234;6.804;2024-01-15T03:54:11;23.07;;;15.03;;
10711;SDS011;5407;51.234;6.804;2024-01-15T03:56:38;20.57;;;15.37;;
10711;SDS011;5407;51.234;6.804;2024-01-15T03:59:05;21.90;;;15.10;;
10711;SDS011;5407;51.234;6.804;2024-01-15T04:01:32;21.57;;;15.13;;
10711;SDS011;5407;51.234;6.804;2024-01-15T04:03:59;25.30;;;15.47;;
10711;SDS011;5407;51.234;6.804;2024-01-15T04:06:27;23.93;;;14.73;;
10711;SDS011;5407;51.234;6.804;2024-01-15T04:08:54;23.43;;;14.93;;
10711;SDS011;5407;51.234;6.804;2024-01-15T04:11:21;20.37;;;14.67;;
10711;SDS011;5407;51.234;6.804;2024-01-15T04:13:48;20.03;;;15.07;;
10711;SDS011;5407;51.234;6.804;2024-01-15T04:16:15;21.47;;;14.10;;
10711;SDS011;5407;51.234;6.804;2024-01-15T04:18:42;23.47;;;15.03;;
10711;SDS011;5407;51.234;6.804;2024-01-15T04:21:08;27.17;;;15.43;;
10711;SDS011;5407;51.234;6.804;2024-01-15T04:23:37;20.07;;;14.13;;
10711;SDS011;5407;51.234;6.804;2024-01-15T04:26:05;21.27;;;14.13;;
10711;SDS011;5407;51.234;6.804;2024-01-15T04:28:31;19.47;;;13.73;;
10711;SDS011;5407;51.234;6.804;2024-01-15T04:30:58;24.27;;;14.30;;
10711;SDS011;5407;51.234;6.804;2024-01-15T04:33:25;19.87;;;13.97;;
10711;SDS011;5407;51.234;6.804;2024-01-15T04:35:52;21.93;;;14.20;;
10711;SDS011;5407;51.234;6.804;2024-01-15T04:38:19;19.60;;;13.33;;
10711;SDS011;5407;51.234;6.804;2024-01-15T04:40:47;23.30;;;13.83;;
10711;SDS011;5407;51.234;6.804;2024-01-15T04:43:14;22.83;;;13.57;;
10711;SDS011;5407;51.234;6.804;2024-01-15T04:45:41;20.43;;;13.53;;
10711;SDS011;5407;51.234;6.804;2024-01-15T04:48:08;17.43;;;12.63;;
10711;SDS011;5407;51.234;6.804;2024-01-15T04:50:34;20.77;;;13.53;;
10711;SDS011;5407;51.234;6.804;2024-01-15T04:53:01;21.40;;;12.97;;
10711;SDS011;5407;51.234;6.804;2024-01-15T04:55:28;17.40;;;12.87;;
10711;SDS011;5407;51.234;6.804;2024-01-15T04:57:56;19.43;;;13.47;;
10711;SDS011;5407;51.234;6.804;2024-01-15T05:00:23;21.00;;;12.30;;
10711;SDS011;5407;51.234;6.804;2024-01-15T05:02:50;21.00;;;11.93;;
10711;SDS011;5407;51.234;6.804;2024-01-15T05:05:16;16.57;;;11.63;;
10711;SDS011;5407;51.234;6.804;2024-01-15T05:07:43;15.50;;;11.43;;
10711;SDS011;5407;51.234;6.804;2024-01-15T05:10:10;22.27;;;12.20;;
10711;SDS011;5407;51.234;6.804;2024-01-15T05:12:37;16.90;;;11.90;;
10711;SDS011;5407;51.234;6.804;2024-01-15T05:15:05;17.20;;;11.40;;
10711;SDS011;5407;51.234;6.804;2024-01-15T05:17:32;20.27;;;12.13;;
10711;SDS011;5407;51.234;6.804;2024-01-15T05:19:59;17.73;;;11.50;;
10711;SDS011;5407;51.234;6.804;2024-01-15T05:22:26;21.27;;;12.00;;
10711;SDS011;5407;51.234;6.804;2024-01-15T05:24:53;17.33;;;11.40;;
10711;SDS011;5407;51.234;6.804;2024-01-15T05:27:19;16.10;;;10.50;;
10711;SDS011;5407;51.234;6.804;2024-01-15T05:29:46;17.07;;;11.63;;
10711;SDS011;5407;51.234;6.804;2024-01-15T05:32:14;16.67;;;10.60;;
10711;SDS011;5407;51.234;6.804;2024-01-15T05:34:41;17.07;;;10.87;;
10711;SDS011;5407;51.234;6.804;2024-01-15T05:37:08;14.50;;;10.07;;
10711;SDS011;5407;51.234;6.804;2024-01-15T05:39:35;17.60;;;11.03;;
10711;SDS011;5407;51.234;6.804;2024-01-15T05:42:02;19.43;;;10.50;;
10711;SDS011;5407;51.234;6.804;2024-01-15T05:44:29;17.43;;;10.47;;
10711;SDS011;5407;51.234;6.804;2024-01-15T05:46:56;15.57;;;10.37;;
10711;SDS011;5407;51.234;6.804;2024-01-15T05:49:24;18.73;;;10.43;;
10711;SDS011;5407;51.234;6.804;2024-01-15T05:51:51;17.87;;;9.97;;
10711;SDS011;5407;51.234;6.804;2024-01-15T05:54:18;16.77;;;10.13;;
10711;SDS011;5407;51.234;6.804;2024-01-15T05:56:46;17.10;;;10.37;;
10711;SDS011;5407;51.234;6.804;2024-01-15T05:59:12;15.17;;;9.87;;
10711;SDS011;5407;51.234;6.804;2024-01-15T06:01:39;15.10;;;9.90;;
10711;SDS011;5407;51.234;6.804;2024-01-15T06:04:06;14.43;;;9.30;;
10711;SDS011;5407;51.234;6.804;2024-01-15T06:06:34;14.70;;;8.73;;
10711;SDS011;5407;51.234;6.804;2024-01-15T06:09:01;14.00;;;8.83;;
10711;SDS011;5407;51.234;6.804;2024-01-15T06:11:30;15.40;;;9.33;;
10711;SDS011;5407;51.234;6.804;2024-01-15T06:13:57;17.83;;;9.30;;
10711;SDS011;5407;51.234;6.804;2024-01-15T06:16:25;15.93;;;8.93;;
10711;SDS011;5407;51.234;6.804;2024-01-15T06:18:52;15.80;;;8.90;;
10711;SDS011;5407;51.234;6.804;2024-01-15T06:21:19;19.13;;;9.83;;
10711;SDS011;5407;51.234;6.804;2024-01-15T06:23:47;12.67;;;8.57;;
10711;SDS011;5407;51.234;6.804;2024-01-15T06:26:14;15.57;;;9.00;;
10711;SDS011;5407;51.234;6.804;2024-01-15T06:28:41;11.43;;;8.67;;
10711;SDS011;5407;51.234;6.804;2024-01-15T06:31:08;12.87;;;8.67;;
10711;SDS011;5407;51.234;6.804;2024-01-15T06:33:35;12.97;;;8.77;;
10711;SDS011;5407;51.234;6.804;2024-01-15T06:36:02;12.03;;;8.13;;
10711;SDS011;5407;51.234;6.804;2024-01-15T06:38:29;14.73;;;8.23;;
10711;SDS011;5407;51.234;6.804;2024-01-15T06:40:57;15.13;;;8.27;;
10711;SDS011;5407;51.234;6.804;2024-01-15T06:43:24;9.97;;;7.53;;
10711;SDS011;5407;51.234;6.804;2024-01-15T06:45:51;11.23;;;7.00;;
10711;SDS011;5407;51.234;6.804;2024-01-15T06:48:18;7.23;;;6.50;;
10711;SDS011;5407;51.234;6.804;2024-01-15T06:50:45;10.53;;;5.97;;
10711;SDS011;5407;51.234;6.804;2024-01-15T06:53:12;13.30;;;7.30;;
10711;SDS011;5407;51.234;6.804;2024-01-15T06:55:38;11.10;;;6.63;;
10711;SDS011;5407;51.234;6.804;2024-01-15T06:58:07;9.53;;;6.57;;
10711;SDS011;5407;51.234;6.804;2024-01-15T07:00:33;13.57;;;7.20;;
10711;SDS011;5407;51.234;6.804;2024-01-15T07:03:00;8.83;;;7.70;;
10711;SDS011;5407;51.234;6.804;2024-01-15T07:05:27;11.03;;;7.80;;
10711;SDS011;5407;51.234;6.804;2024-01-15T07:07:55;12.57;;;8.57;;
10711;SDS011;5407;51.234;6.804;2024-01-15T07:10:22;14.77;;;9.53;;
10711;SDS011;5407;51.234;6.804;2024-01-15T07:12:49;13.63;;;10.40;;
10711;SDS011;5407;51.234;6.804;2024-01-15T07:15:17;14.13;;;10.43;;
10711;SDS011;5407;51.234;6.804;2024-01-15T07:17:44;18.20;;;10.43;;
10711;SDS011;5407;51.234;6.804;2024-01-15T07:20:11;16.20;;;10.70;;
10711;SDS011;5407;51.234;6.804;2024-01-15T07:22:38;16.40;;;11.33;;
10711;SDS011;5407;51.234;6.804;2024-01-15T07:25:05;18.27;;;11.47;;
10711;SDS011;5407;51.234;6.804;2024-01-15T07:27:32;15.13;;;11.07;;
10711;SDS011;5407;51.234;6.804;2024-01-15T07:29:59;16.80;;;11.50;;
10711;SDS011;5407;51.234;6.804;2024-01-15T07:32:27;19.40;;;11.77;;
10711;SDS011;5407;51.234;6.804;2024-01-15T07:34:54;16.47;;;12.07;;
10711;SDS011;5407;51.234;6.804;2024-01-15T07:37:21;18.33;;;13.03;;
10711;SDS011;5407;51.234;6.804;2024-01-15T07:39:48;16.60;;;12.10;;
10711;SDS011;5407;51.234;6.804;2024-01-15T07:42:15;19.17;;;12.23;;
10711;SDS011;5407;51.234;6.804;2024-01-15T07:44:42;15.77;;;11.50;;
10711;SDS011;5407;51.234;6.804;2024-01-15T07:47:10;16.07;;;11.00;;
10711;SDS011;5407;51.234;6.804;2024-01-15T07:49:38;17.30;;;11.27;;
10711;SDS011;5407;51.234;6.804;2024-01-15T07:52:05;15.57;;;10.63;;
10711;SDS011;5407;51.234;6.804;2024-01-15T07:54:32;14.70;;;10.80;;
10711;SDS011;5407;51.234;6.804;2024-01-15T07:56:59;16.03;;;11.63;;
10711;SDS011;5407;51.234;6.804;2024-01-15T07:59:28;13.47;;;10.30;;
10711;SDS011;5407;51.234;6.804;2024-01-15T08:01:55;16.30;;;11.03;;
10711;SDS011;5407;51.234;6.804;2024-01-15T08:04:22;15.67;;;11.50;;
10711;SDS011;5407;51.234;6.804;2024-01-15T08:06:50;19.30;;;11.97;;
10711;SDS011;5407;51.234;6.804;2024-01-15T08:09:17;13.67;;;11.60;;
10711;SDS011;5407;51.234;6.804;2024-01-15T08:11:44;16.50;;;11.70;;
10711;SDS011;5407;51.234;6.804;2024-01-15T08:14:10;18.03;;;12.43;;
10711;SDS011;5407;51.234;6.804;2024-01-15T08:16:38;16.20;;;12.33;;
10711;SDS011;5407;51.234;6.804;2024-01-15T08:19:05;15.60;;;12.73;;
10711;SDS011;5407;51.234;6.804;2024-01-15T08:21:32;13.47;;;12.07;;
10711;SDS011;5407;51.234;6.804;2024-01-15T08:24:01;17.47;;;13.07;;
10711;SDS011;5407;51.234;6.804;2024-01-15T08:26:28;18.77;;;12.93;;
10711;SDS011;5407;51.234;6.804;2024-01-15T08:28:55;17.80;;;13.17;;
10711;SDS011;5407;51.234;6.804;2024-01-15T08:31:22;18.73;;;13.23;;
10711;SDS011;5407;51.234;6.804;2024-01-15T08:33:49;14.83;;;12.97;;
10711;SDS011;5407;51.234;6.804;2024-01-15T08:36:16;17.27;;;12.83;;
10711;SDS011;5407;51.234;6.804;2024-01-15T08:38:43;16.93;;;13.23;;
10711;SDS011;5407;51.234;6.804;2024-01-15T08:41:11;18.33;;;13.53;;
10711;SDS011;5407;51.234;6.804;2024-01-15T08:43:38;14.63;;;12.80;;
10711;SDS011;5407;51.234;6.804;2024-01-15T08:46:05;16.80;;;13.03;;
10711;SDS011;5407;51.234;6.804;2024-01-15T08:48:32;15.37;;;13.23;;
10711;SDS011;5407;51.234;6.804;2024-01-15T08:50:59;15.10;;;13.50;;
10711;SDS011;5407;51.234;6.804;2024-01-15T08:53:25;17.77;;;14.17;;
10711;SDS011;5407;51.234;6.804;2024-01-15T08:55:53;17.30;;;14.23;;
10711;SDS011;5407;51.234;6.804;2024-01-15T08:58:22;16.23;;;13.97;;
10711;SDS011;5407;51.234;6.804;2024-01-15T09:00:49;17.00;;;13.20;;
10711;SDS011;5407;51.234;6.804;2024-01-15T09:03:17;18.50;;;13.43;;
10711;SDS011;5407;51.234;6.804;2024-01-15T09:05:43;16.83;;;13.20;;
10711;SDS011;5407;51.234;6.804;2024-01-15T09:08:10;15.63;;;13.00;;
10711;SDS011;5407;51.234;6.804;2024-01-15T09:10:38;15.83;;;13.70;;
10711;SDS011;5407;51.234;6.804;2024-01-15T09:13:04;16.20;;;14.50;;
10711;SDS011;5407;51.234;6.804;2024-01-15T09:15:33;15.37;;;13.77;;
10711;SDS011;5407;51.234;6.804;2024-01-15T09:17:59;16.03;;;12.77;;
10711;SDS011;5407;51.234;6.804;2024-01-15T09:20:27;14.30;;;12.57;;
10711;SDS011;5407;51.234;6.804;2024-01-15T09:22:54;16.47;;;13.37;;
10711;SDS011;5407;51.234;6.804;2024-01-15T09:25:21;14.83;;;12.97;;
10711;SDS011;5407;51.234;6.804;2024-01-15T09:27:48;14.80;;;12.97;;
10711;SDS011;5407;51.234;6.804;2024-01-15T09:30:14;13.70;;;12.30;;
10711;SDS011;5407;51.234;6.804;2024-01-15T09:32:43;13.80;;;12.40;;
10711;SDS011;5407;51.234;6.804;2024-01-15T09:35:10;14.43;;;12.97;;
10711;SDS011;5407;51.234;6.804;2024-01-15T09:37:36;13.77;;;12.37;;
10711;SDS011;5407;51.234;6.804;2024-01-15T09:40:04;13.53;;;11.80;;
10711;SDS011;5407;51.234;6.804;2024-01-15T09:42:33;12.33;;;11.03;;
10711;SDS011;5407;51.234;6.804;2024-01-15T09:45:00;14.73;;;11.43;;
10711;SDS011;5407;51.234;6.804;2024-01-15T09:47:29;11.73;;;10.57;;
10711;SDS011;5407;51.234;6.804;2024-01-15T09:49:57;12.33;;;11.13;;
10711;SDS011;5407;51.234;6.804;2024-01-15T09:52:25;11.63;;;10.50;;
10711;SDS011;5407;51.234;6.804;2024-01-15T09:54:51;10.73;;;9.73;;
10711;SDS011;5407;51.234;6.804;2024-01-15T09:57:18;10.90;;;9.80;;
10711;SDS011;5407;51.234;6.804;2024-01-15T09:59:45;10.33;;;9.33;;
10711;SDS011;5407;51.234;6.804;2024-01-15T10:02:13;11.40;;;10.20;;
10711;SDS011;5407;51.234;6.804;2024-01-15T10:04:43;9.90;;;8.90;;
10711;SDS011;5407;51.234;6.804;2024-01-15T10:07:13;12.03;;;10.30;;
10711;SDS011;5407;51.234;6.804;2024-01-15T10:09:41;9.80;;;8.80;;
10711;SDS011;5407;51.234;6.804;2024-01-15T10:12:09;8.53;;;7.73;;
10711;SDS011;5407;51.234;6.804;2024-01-15T10:14:36;15.53;;;10.90;;
10711;SDS011;5407;51.234;6.804;2024-01-15T10:17:11;9.60;;;8.33;;
10711;SDS011;5407;51.234;6.804;2024-01-15T10:19:38;8.30;;;7.50;;
10711;SDS011;5407;51.234;6.804;2024-01-15T10:22:06;7.67;;;6.97;;
10711;SDS011;5407;51.234;6.804;2024-01-15T10:24:36;7.77;;;6.43;;
10711;SDS011;5407;51.234;6.804;2024-01-15T10:27:07;6.93;;;6.33;;
10711;SDS011;5407;51.234;6.804;2024-01-15T10:29:35;6.97;;;6.37;;
10711;SDS011;5407;51.234;6.804;2024-01-15T10:32:02;6.67;;;6.07;;
10711;SDS011;5407;51.234;6.804;2024-01-15T10:34:32;7.30;;;6.60;;
10711;SDS011;5407;51.234;6.804;2024-01-15T10:36:59;6.40;;;5.70;;
10711;SDS011;5407;51.234;6.804;2024-01-15T10:39:28;5.63;;;5.13;;
10711;SDS011;5407;51.234;6.804;2024-01-15T10:41:57;6.00;;;5.40;;
10711;SDS011;5407;51.234;6.804;2024-01-15T10:44:24;5.97;;;5.47;;
10711;SDS011;5407;51.234;6.804;2024-01-15T10:46:51;5.70;;;5.20;;
10711;SDS011;5407;51.234;6.804;2024-01-15T10:49:18;6.10;;;5.50;;
10711;SDS011;5407;51.234;6.804;2024-01-15T10:51:46;5.83;;;5.27;;
10711;SDS011;5407;51.234;6.804;2024-01-15T10:54:14;8.47;;;5.20;;
10711;SDS011;5407;51.234;6.804;2024-01-15T10:56:41;6.63;;;5.47;;
10711;SDS011;5407;51.234;6.804;2024-01-15T10:59:10;5.13;;;4.63;;
10711;SDS011;5407;51.234;6.804;2024-01-15T11:01:39;8.10;;;4.87;;
10711;SDS011;5407;51.234;6.804;2024-01-15T11:04:08;6.70;;;4.60;;
10711;SDS011;5407;51.234;6.804;2024-01-15T11:06:41;5.37;;;4.80;;
10711;SDS011;5407;51.234;6.804;2024-01-15T11:09:09;4.93;;;4.33;;
10711;SDS011;5407;51.234;6.804;2024-01-15T11:11:40;4.43;;;3.60;;
10711;SDS011;5407;51.234;6.804;2024-01-15T11:14:08;7.83;;;3.70;;
10711;SDS011;5407;51.234;6.804;2024-01-15T11:16:54;4.93;;;3.20;;
10711;SDS011;5407;51.234;6.804;2024-01-15T11:19:22;6.87;;;3.10;;
10711;SDS011;5407;51.234;6.804;2024-01-15T11:21:49;6.00;;;3.10;;
10711;SDS011;5407;51.234;6.804;2024-01-15T11:24:33;5.70;;;2.90;;
10711;SDS011;5407;51.234;6.804;2024-01-15T11:27:01;4.37;;;2.70;;
10711;SDS011;5407;51.234;6.804;2024-01-15T11:29:30;6.60;;;2.83;;
10711;SDS011;5407;51.234;6.804;2024-01-15T11:32:02;3.60;;;2.40;;
10711;SDS011;5407;51.234;6.804;2024-01-15T11:34:51;4.70;;;2.60;;
10711;SDS011;5407;51.234;6.804;2024-01-15T11:37:20;8.77;;;2.43;;
10711;SDS011;5407;51.234;6.804;2024-01-15T11:39:49;6.33;;;2.50;;
10711;SDS011;5407;51.234;6.804;2024-01-15T11:42:18;7.63;;;2.63;;
10711;SDS011;5407;51.234;6.804;2024-01-15T11:44:46;3.93;;;2.40;;
10711;SDS011;5407;51.234;6.804;2024-01-15T11:47:15;5.07;;;2.43;;
10711;SDS011;5407;51.234;6.804;2024-01-15T11:52:33;6.20;;;2.60;;
10711;SDS011;5407;51.234;6.804;2024-01-15T11:55:03;5.47;;;2.83;;
10711;SDS011;5407;51.234;6.804;2024-01-15T11:57:45;5.10;;;2.50;;
10711;SDS011;5407;51.234;6.804;2024-01-15T12:00:13;6.13;;;2.80;;
10711;SDS011;5407;51.234;6.804;2024-01-15T12:02:42;4.50;;;2.80;;
10711;SDS011;5407;51.234;6.804;2024-01-15T12:05:10;5.03;;;2.80;;
10711;SDS011;5407;51.234;6.804;2024-01-15T12:07:38;4.43;;;3.13;;
10711;SDS011;5407;51.234;6.804;2024-01-15T12:10:09;6.67;;;3.33;;
10711;SDS011;5407;51.234;6.804;2024-01-15T12:15:27;5.17;;;3.07;;
10711;SDS011;5407;51.234;6.804;2024-01-15T12:17:57;5.83;;;3.30;;
10711;SDS011;5407;51.234;6.804;2024-01-15T12:20:25;5.50;;;3.30;;
10711;SDS011;5407;51.234;6.804;2024-01-15T12:22:52;5.70;;;3.20;;
10711;SDS011;5407;51.234;6.804;2024-01-15T12:25:20;4.67;;;3.67;;
10711;SDS011;5407;51.234;6.804;2024-01-15T12:27:47;6.03;;;3.60;;
10711;SDS011;5407;51.234;6.804;2024-01-15T12:30:14;9.03;;;4.70;;
10711;SDS011;5407;51.234;6.804;2024-01-15T12:32:41;7.70;;;4.13;;
10711;SDS011;5407;51.234;6.804;2024-01-15T12:35:10;7.17;;;4.70;;
10711;SDS011;5407;51.234;6.804;2024-01-15T12:37:38;13.20;;;8.00;;
10711;SDS011;5407;51.234;6.804;2024-01-15T12:40:06;7.43;;;4.70;;
10711;SDS011;5407;51.234;6.804;2024-01-15T12:42:35;10.50;;;6.27;;
10711;SDS011;5407;51.234;6.804;2024-01-15T12:45:02;8.80;;;5.77;;
10711;SDS011;5407;51.234;6.804;2024-01-15T12:47:30;9.03;;;5.93;;
10711;SDS011;5407;51.234;6.804;2024-01-15T12:49:57;8.43;;;5.70;;
10711;SDS011;5407;51.234;6.804;2024-01-15T12:52:27;12.60;;;7.03;;
10711;SDS011;5407;51.234;6.804;2024-01-15T12:54:55;8.43;;;5.60;;
10711;SDS011;5407;51.234;6.804;2024-01-15T12:57:22;9.27;;;5.97;;
10711;SDS011;5407;51.234;6.804;2024-01-15T12:59:49;8.50;;;5.80;;
10711;SDS011;5407;51.234;6.804;2024-01-15T13:02:16;7.47;;;5.83;;
10711;SDS011;5407;51.234;6.804;2024-01-15T13:04:43;8.40;;;5.90;;
10711;SDS011;5407;51.234;6.804;2024-01-15T13:07:10;8.77;;;5.33;;
10711;SDS011;5407;51.234;6.804;2024-01-15T13:09:39;10.03;;;4.90;;
10711;SDS011;5407;51.234;6.804;2024-01-15T13:12:06;6.17;;;4.63;;
10711;SDS011;5407;51.234;6.804;2024-01-15T13:14:33;8.53;;;4.40;;
10711;SDS011;5407;51.234;6.804;2024-01-15T13:17:00;6.20;;;4.03;;
10711;SDS011;5407;51.234;6.804;2024-01-15T13:19:28;12.30;;;4.60;;
10711;SDS011;5407;51.234;6.804;2024-01-15T13:21:55;6.27;;;4.40;;
10711;SDS011;5407;51.234;6.804;2024-01-15T13:24:24;5.47;;;4.00;;
10711;SDS011;5407;51.234;6.804;2024-01-15T13:26:52;5.30;;;4.13;;
10711;SDS011;5407;51.234;6.804;2024-01-15T13:29:19;5.23;;;3.90;;
10711;SDS011;5407;51.234;6.804;2024-01-15T13:31:46;6.93;;;3.30;;
10711;SDS011;5407;51.234;6.804;2024-01-15T13:34:13;8.30;;;3.10;;
10711;SDS011;5407;51.234;6.804;2024-01-15T13:36:40;5.00;;;2.73;;
10711;SDS011;5407;51.234;6.804;2024-01-15T13:39:07;4.60;;;2.80;;
10711;SDS011;5407;51.234;6.804;2024-01-15T13:41:34;7.07;;;2.80;;
10711;SDS011;5407;51.234;6.804;2024-01-15T13:44:03;5.03;;;2.60;;
10711;SDS011;5407;51.234;6.804;2024-01-15T13:46:30;3.53;;;2.27;;
10711;SDS011;5407;51.234;6.804;2024-01-15T13:48:59;3.10;;;2.50;;
10711;SDS011;5407;51.234;6.804;2024-01-15T13:51:25;5.47;;;2.43;;
10711;SDS011;5407;51.234;6.804;2024-01-15T13:53:52;3.50;;;2.03;;
10711;SDS011;5407;51.234;6.804;2024-01-15T13:56:19;2.77;;;1.87;;
10711;SDS011;5407;51.234;6.804;2024-01-15T13:58:46;4.00;;;1.87;;
10711;SDS011;5407;51.234;6.804;2024-01-15T14:01:16;3.00;;;1.87;;
10711;SDS011;5407;51.234;6.804;2024-01-15T14:03:43;5.57;;;1.97;;
10711;SDS011;5407;51.234;6.804;2024-01-15T14:06:10;2.57;;;1.70;;
10711;SDS011;5407;51.234;6.804;2024-01-15T14:08:37;3.27;;;1.63;;
10711;SDS011;5407;51.234;6.804;2024-01-15T14:11:04;2.40;;;1.70;;
10711;SDS011;5407;51.234;6.804;2024-01-15T14:13:32;3.23;;;1.80;;
10711;SDS011;5407;51.234;6.804;2024-01-15T14:15:59;4.07;;;2.00;;
10711;SDS011;5407;51.234;6.804;2024-01-15T14:18:27;2.47;;;1.83;;
10711;SDS011;5407;51.234;6.804;2024-01-15T14:20:54;4.40;;;1.80;;
10711;SDS011;5407;51.234;6.804;2024-01-15T14:23:21;3.20;;;1.90;;
10711;SDS011;5407;51.234;6.804;2024-01-15T14:25:48;7.13;;;4.40;;
10711;SDS011;5407;51.234;6.804;2024-01-15T14:28:15;4.17;;;3.10;;
10711;SDS011;5407;51.234;6.804;2024-01-15T14:30:42;9.07;;;3.00;;
10711;SDS011;5407;51.234;6.804;2024-01-15T14:33:09;8.63;;;4.80;;
10711;SDS011;5407;51.234;6.804;2024-01-15T14:35:37;3.77;;;2.10;;
10711;SDS011;5407;51.234;6.804;2024-01-15T14:38:04;3.43;;;2.30;;
10711;SDS011;5407;51.234;6.804;2024-01-15T14:40:31;4.90;;;2.70;;
10711;SDS011;5407;51.234;6.804;2024-01-15T14:42:58;2.80;;;1.97;;
10711;SDS011;5407;51.234;6.804;2024-01-15T14:45:24;3.33;;;1.90;;
10711;SDS011;5407;51.234;6.804;2024-01-15T14:47:52;2.43;;;1.70;;
10711;SDS011;5407;51.234;6.804;2024-01-15T14:50:19;3.60;;;1.87;;